Time;durP1;ratioP1;P1;durP2;ratioP2;P2;SDS_P1;SDS_P2;PMS_P1;PMS_P2;Temp;Humidity;BMP_temperature;BMP_pressure;BME280_temperature;BME280_humidity;BME280_pressure;Samples;Min_cycle;Max_cycle;Signal;HPM_P1;HPM_P2
2023/05/26 00:02:00;;;;;;;;;;;;;;;-140.72;100.00;52721.63;5014405;28;19921;-71
2023/05/26 00:04:25;;;;;;;;;;;;;;;-140.72;100.00;52748.00;5015181;28;20433;-71
2023/05/26 00:06:52;;;;;;;;;;;;;;;-140.72;100.00;52752.06;5015221;28;19928;-72
2023/05/26 00:09:18;;;;;;;;;;;;;;;-140.72;100.00;52756.13;5012283;28;19967;-71
2023/05/26 00:11:44;;;;;;;;;;;;;;;-140.72;100.00;52731.75;5008077;28;19918;-72
2023/05/26 00:14:10;;;;;;;;;;;;;;;-140.72;100.00;52780.47;5009845;28;19937;-72
2023/05/26 00:16:35;;;;;;;;;;;;;;;-140.72;100.00;52760.19;5011215;28;19925;-72
2023/05/26 00:19:00;;;;;;;;;;;;;;;-140.72;100.00;52735.81;5010799;28;19922;-72
2023/05/26 00:21:26;;;;;;;;;;;;;;;-140.72;100.00;52735.81;5009467;28;19929;-71
2023/05/26 00:23:51;;;;;;;;;;;;;;;-140.72;100.00;52756.13;5013098;28;19972;-72
2023/05/26 00:26:16;;;;;;;;;;;;;;;-140.72;100.00;52754.09;5012130;28;19922;-71
2023/05/26 00:28:41;;;;;;;;;;;;;;;-140.72;100.00;52774.38;5014200;28;19928;-71
2023/05/26 00:31:10;;;;;;;;;;;;;;;-140.72;100.00;52762.22;5006561;28;19937;-71
2023/05/26 00:33:35;;;;;;;;;;;;;;;-140.72;100.00;52748.00;5006498;28;19932;-71
2023/05/26 00:36:00;;;;;;;;;;;;;;;-140.72;100.00;52766.25;5014746;28;20367;-71
2023/05/26 00:38:27;;;;;;;;;;;;;;;-140.72;100.00;52790.63;5012567;28;20359;-71
2023/05/26 00:40:53;;;;;;;;;;;;;;;-140.72;100.00;52762.22;5015624;28;19917;-71
2023/05/26 00:43:18;;;;;;;;;;;;;;;-140.72;100.00;52804.81;5009052;28;20298;-71
2023/05/26 00:45:43;;;;;;;;;;;;;;;-140.72;100.00;52762.22;5015552;28;20387;-72
2023/05/26 00:48:08;;;;;;;;;;;;;;;-140.72;100.00;52750.03;5014386;28;20427;-70
2023/05/26 00:50:34;;;;;;;;;;;;;;;-140.72;100.00;52754.09;5013341;28;19980;-71
2023/05/26 00:53:00;;;;;;;;;;;;;;;-140.72;100.00;52752.06;5011965;28;19921;-71
2023/05/26 00:55:26;;;;;;;;;;;;;;;-140.72;100.00;52780.47;5011286;28;20250;-72
2023/05/26 00:57:51;;;;;;;;;;;;;;;-140.72;100.00;52770.31;5012120;28;19925;-71
2023/05/26 01:13:31;;;;;;;;;;;;;;;-140.72;100.00;52758.16;6194520;22;1956163;-71
2023/05/26 01:15:58;;;;;;;;;;;;;;;-140.72;100.00;52748.00;6258283;22;19998;-72
2023/05/26 01:18:42;;;;;;;;;;;;;;;-140.72;100.00;52796.72;6258266;22;19942;-71
2023/05/26 01:21:10;;;;;;;;;;;;;;;-140.72;100.00;52748.00;6258279;22;19990;-72
2023/05/26 01:23:48;;;;;;;;;;;;;;;-140.72;100.00;52719.59;6258320;22;19947;-72
2023/05/26 01:26:37;;;;;;;;;;;;;;;-140.72;100.00;52760.19;6285680;22;20331;-72
2023/05/26 01:29:06;;;;;;;;;;;;;;;-140.72;100.00;52778.44;6258541;22;20314;-72
2023/05/26 01:31:33;;;;;;;;;;;;;;;-140.72;100.00;52745.97;6285690;22;20327;-72
2023/05/26 01:33:59;;;;;;;;;;;;;;;-140.72;100.00;52790.63;6259981;22;19957;-71
2023/05/26 01:36:24;;;;;;;;;;;;;;;-140.72;100.00;52796.72;6254605;23;19912;-71
2023/05/26 01:38:49;;;;;;;;;;;;;;;-140.72;100.00;52817.00;6254490;23;20347;-72
2023/05/26 01:41:44;;;;;;;;;;;;;;;-140.72;100.00;52778.44;6254999;23;20384;-72
2023/05/26 01:44:23;;;;;;;;;;;;;;;-140.72;100.00;52768.28;6230834;23;19912;-72
2023/05/26 01:46:49;;;;;;;;;;;;;;;-140.72;100.00;52770.31;6257447;23;20290;-71
2023/05/26 01:49:15;;;;;;;;;;;;;;;-140.72;100.00;52778.44;6258184;23;19912;-72
2023/05/26 01:51:43;;;;;;;;;;;;;;;-140.72;100.00;52796.72;6257656;23;19965;-72
2023/05/26 01:54:09;;;;;;;;;;;;;;;-140.72;100.00;52817.00;6255527;23;19938;-72
2023/05/26 01:56:35;;;;;;;;;;;;;;;-140.72;100.00;52754.09;6258286;23;19912;-72
2023/05/26 01:59:01;;;;;;;;;;;;;;;-140.72;100.00;52817.00;6229930;23;19918;-72
2023/05/26 02:01:27;;;;;;;;;;;;;;;-140.72;100.00;52745.97;6254445;23;20309;-72
2023/05/26 02:03:52;;;;;;;;;;;;;;;-140.72;100.00;52792.66;6254815;23;19915;-72
2023/05/26 02:06:17;;;;;;;;;;;;;;;-140.72;100.00;52806.84;6228429;23;19916;-72
2023/05/26 02:08:42;;;;;;;;;;;;;;;-140.72;100.00;52796.72;6254506;23;20251;-72
2023/05/26 02:11:08;;;;;;;;;;;;;;;-140.72;100.00;52794.69;6249268;23;19915;-72
2023/05/26 02:13:33;;;;;;;;;;;;;;;-140.72;100.00;52784.53;6247441;23;19962;-72
2023/05/26 02:15:58;;;;;;;;;;;;;;;-140.72;100.00;52772.34;6247492;23;19926;-72
2023/05/26 02:18:24;;;;;;;;;;;;;;;-140.72;100.00;52847.44;6248129;23;19912;-72
2023/05/26 02:20:50;;;;;;;;;;;;;;;-140.72;100.00;52804.81;6248468;23;19916;-72
2023/05/26 02:23:31;;;;;;;;;;;;;;;-140.72;100.00;52768.28;6246940;23;20049;-71
2023/05/26 02:25:57;;;;;;;;;;;;;;;-140.72;100.00;52764.25;6247461;23;19911;-72
2023/05/26 02:28:29;;;;;;;;;;;;;;;-140.72;100.00;52776.41;6247141;23;19995;-72
2023/05/26 02:30:54;;;;;;;;;;;;;;;-140.72;100.00;52780.47;6247410;23;19912;-71
2023/05/26 02:33:20;;;;;;;;;;;;;;;-140.72;100.00;52806.84;6247358;22;20238;-72
2023/05/26 02:35:45;;;;;;;;;;;;;;;-140.72;100.00;52796.72;6247485;23;19990;-72
2023/05/26 02:38:10;;;;;;;;;;;;;;;-140.72;100.00;52825.13;6247243;23;20243;-72
2023/05/26 02:40:36;;;;;;;;;;;;;;;-140.72;100.00;52768.28;6247046;23;20251;-72
2023/05/26 02:43:01;;;;;;;;;;;;;;;-140.72;100.00;52778.44;6219358;23;19911;-72
2023/05/26 02:48:23;;;;;;;;;;;;;;;-140.72;100.00;52784.53;6246730;23;19915;-72
2023/05/26 02:50:50;;;;;;;;;;;;;;;-140.72;100.00;52810.91;6220056;23;19934;-72
2023/05/26 02:53:15;;;;;;;;;;;;;;;-140.72;100.00;52798.72;6247146;23;19911;-71
2023/05/26 02:55:41;;;;;;;;;;;;;;;-140.72;100.00;52808.88;6220006;23;20405;-72
2023/05/26 02:58:06;;;;;;;;;;;;;;;-140.72;100.00;52792.66;6247039;23;19911;-72
2023/05/26 03:00:31;;;;;;;;;;;;;;;-140.72;100.00;52814.97;6220004;23;20662;-72
2023/05/26 03:02:57;;;;;;;;;;;;;;;-140.72;100.00;52782.50;6247225;23;20247;-72
2023/05/26 03:05:22;;;;;;;;;;;;;;;-140.72;100.00;52778.44;6246898;23;19947;-72
2023/05/26 03:07:47;;;;;;;;;;;;;;;-140.72;100.00;52823.09;6246905;23;19911;-72
2023/05/26 03:10:13;;;;;;;;;;;;;;;-140.72;100.00;52802.78;6247084;23;19911;-72
2023/05/26 03:12:38;;;;;;;;;;;;;;;-140.72;100.00;52804.81;6246748;23;19911;-71
2023/05/26 03:15:03;;;;;;;;;;;;;;;-140.72;100.00;52784.53;6247055;23;20285;-72
2023/05/26 03:17:29;;;;;;;;;;;;;;;-140.72;100.00;52780.47;6246428;23;19994;-71
2023/05/26 03:19:55;;;;;;;;;;;;;;;-140.72;100.00;52798.72;6246657;23;19934;-72
2023/05/26 03:22:21;;;;;;;;;;;;;;;-140.72;100.00;52792.66;6219556;23;19912;-72
2023/05/26 03:24:46;;;;;;;;;;;;;;;-140.72;100.00;52819.03;6221062;23;19985;-72
2023/05/26 03:27:11;;;;;;;;;;;;;;;-140.72;100.00;52821.06;6246944;23;19916;-72
2023/05/26 03:29:36;;;;;;;;;;;;;;;-140.72;100.00;52806.84;6246463;23;19927;-72
2023/05/26 03:32:02;;;;;;;;;;;;;;;-140.72;100.00;52821.06;6246410;23;20081;-72
2023/05/26 03:34:27;;;;;;;;;;;;;;;-140.72;100.00;52823.09;6246511;22;19919;-72
2023/05/26 03:36:54;;;;;;;;;;;;;;;-140.72;100.00;52806.84;6247023;23;19951;-72
2023/05/26 03:39:21;;;;;;;;;;;;;;;-140.72;100.00;52837.28;6219907;23;19987;-72
2023/05/26 03:41:47;;;;;;;;;;;;;;;-140.72;100.00;52798.72;6247181;23;20220;-72
2023/05/26 03:44:12;;;;;;;;;;;;;;;-140.72;100.00;52776.41;6246509;23;19920;-72
2023/05/26 03:46:37;;;;;;;;;;;;;;;-140.72;100.00;52825.13;6246525;23;19918;-72
2023/05/26 03:49:02;;;;;;;;;;;;;;;-140.72;100.00;52804.81;6246573;23;19951;-72
2023/05/26 03:51:27;;;;;;;;;;;;;;;-140.72;100.00;52776.41;6246396;23;19926;-72
2023/05/26 03:53:53;;;;;;;;;;;;;;;-140.72;100.00;52788.59;6246573;23;20323;-72
2023/05/26 03:56:18;;;;;;;;;;;;;;;-140.72;100.00;52762.22;6246842;23;20013;-72
2023/05/26 03:58:44;;;;;;;;;;;;;;;-140.72;100.00;52794.69;6246440;23;19965;-71
2023/05/26 04:01:09;;;;;;;;;;;;;;;-140.72;100.00;52833.22;6246403;23;19911;-73
2023/05/26 04:03:34;;;;;;;;;;;;;;;-140.72;100.00;52794.69;6246377;23;19912;-72
2023/05/26 04:06:00;;;;;;;;;;;;;;;-140.72;100.00;52788.59;6246099;23;19994;-72
2023/05/26 04:08:28;;;;;;;;;;;;;;;-140.72;100.00;52784.53;6219270;23;20247;-72
2023/05/26 04:10:54;;;;;;;;;;;;;;;-140.72;100.00;52774.38;6246622;23;20328;-71
2023/05/26 04:13:19;;;;;;;;;;;;;;;-140.72;100.00;52794.69;6245324;23;19965;-72
2023/05/26 04:15:45;;;;;;;;;;;;;;;-140.72;100.00;52776.41;6219684;23;19955;-72
2023/05/26 04:18:10;;;;;;;;;;;;;;;-140.72;100.00;52796.72;6218869;23;20265;-72
2023/05/26 04:20:36;;;;;;;;;;;;;;;-140.72;100.00;52780.47;6245942;23;19965;-72
2023/05/26 04:23:01;;;;;;;;;;;;;;;-140.72;100.00;52796.72;6246084;23;19990;-72
2023/05/26 04:25:26;;;;;;;;;;;;;;;-140.72;100.00;52768.28;6219483;23;20382;-72
2023/05/26 04:27:57;;;;;;;;;;;;;;;-140.72;100.00;52782.50;6246206;23;19911;-71
2023/05/26 04:30:23;;;;;;;;;;;;;;;-140.72;100.00;52766.25;6246578;23;19911;-74
2023/05/26 04:32:48;;;;;;;;;;;;;;;-140.72;100.00;52784.53;6218822;23;19990;-72
2023/05/26 04:35:14;;;;;;;;;;;;;;;-140.72;100.00;52780.47;6246516;23;19918;-74
2023/05/26 04:37:40;;;;;;;;;;;;;;;-140.72;100.00;52780.47;6219116;23;19919;-72
2023/05/26 04:40:09;;;;;;;;;;;;;;;-140.72;100.00;52754.09;6219320;23;19911;-71
2023/05/26 04:42:35;;;;;;;;;;;;;;;-140.72;100.00;52780.47;6247836;23;19934;-73
2023/05/26 04:45:00;;;;;;;;;;;;;;;-140.72;100.00;52770.31;6221269;23;19915;-72
2023/05/26 04:47:27;;;;;;;;;;;;;;;-140.72;100.00;52752.06;6247080;23;19918;-72
2023/05/26 04:49:52;;;;;;;;;;;;;;;-140.72;100.00;52808.88;6247110;23;19979;-72
2023/05/26 04:52:17;;;;;;;;;;;;;;;-140.72;100.00;52796.72;6219679;23;19912;-72
2023/05/26 04:54:43;;;;;;;;;;;;;;;-140.72;100.00;52772.34;6218917;23;19916;-74
2023/05/26 04:57:08;;;;;;;;;;;;;;;-140.72;100.00;52743.94;6222315;23;19915;-75
2023/05/26 04:59:33;;;;;;;;;;;;;;;-140.72;100.00;52784.53;6248240;23;19911;-75
2023/05/26 05:01:59;;;;;;;;;;;;;;;-140.72;100.00;52772.34;6220695;23;19912;-73
2023/05/26 05:04:24;;;;;;;;;;;;;;;-140.72;100.00;52754.09;6248078;23;19954;-73
2023/05/26 05:06:49;;;;;;;;;;;;;;;-140.72;100.00;52780.47;6219820;23;19918;-75
2023/05/26 05:09:14;;;;;;;;;;;;;;;-140.72;100.00;52794.69;6219969;23;19912;-74
2023/05/26 05:11:40;;;;;;;;;;;;;;;-140.72;100.00;52758.16;6220138;23;19919;-74
2023/05/26 05:14:05;;;;;;;;;;;;;;;-140.72;100.00;52756.13;6246487;23;19990;-76
2023/05/26 05:16:31;;;;;;;;;;;;;;;-140.72;100.00;52760.19;6247004;23;20003;-73
2023/05/26 05:18:56;;;;;;;;;;;;;;;-140.72;100.00;52780.47;6246477;23;20374;-73
2023/05/26 05:21:21;;;;;;;;;;;;;;;-140.72;100.00;52731.75;6219527;23;19961;-74
2023/05/26 05:23:46;;;;;;;;;;;;;;;-140.72;100.00;52800.75;6246269;23;19958;-73
2023/05/26 05:26:12;;;;;;;;;;;;;;;-140.72;100.00;52764.25;6245900;23;19922;-75
2023/05/26 05:28:37;;;;;;;;;;;;;;;-140.72;100.00;52794.69;6219451;23;20320;-71
2023/05/26 05:31:02;;;;;;;;;;;;;;;-140.72;100.00;52719.59;6245726;23;20316;-72
2023/05/26 05:33:27;;;;;;;;;;;;;;;-140.72;100.00;52723.66;6245302;22;19918;-73
2023/05/26 05:35:53;;;;;;;;;;;;;;;-140.72;100.00;52758.16;6219429;23;20295;-72
2023/05/26 05:38:18;;;;;;;;;;;;;;;-140.72;100.00;52760.19;6246158;23;19946;-73
2023/05/26 05:40:43;;;;;;;;;;;;;;;-140.72;100.00;52758.16;6245335;23;20338;-73
2023/05/26 05:43:09;;;;;;;;;;;;;;;-140.72;100.00;52709.44;6245888;23;19912;-73
2023/05/26 05:45:34;;;;;;;;;;;;;;;-140.72;100.00;52754.09;6219683;23;19912;-73
2023/05/26 05:47:59;;;;;;;;;;;;;;;-140.72;100.00;52768.28;6247832;23;19958;-73
2023/05/26 05:50:29;;;;;;;;;;;;;;;-140.72;100.00;52752.06;6247837;23;19915;-73
2023/05/26 05:52:54;;;;;;;;;;;;;;;-140.72;100.00;52735.81;6248020;23;19912;-73
2023/05/26 05:55:19;;;;;;;;;;;;;;;-140.72;100.00;52768.28;6247960;23;20045;-74
2023/05/26 05:57:44;;;;;;;;;;;;;;;-140.72;100.00;52735.81;6248661;23;20019;-71
2023/05/26 06:00:11;;;;;;;;;;;;;;;-140.72;100.00;52727.72;6247502;23;20263;-73
2023/05/26 06:02:36;;;;;;;;;;;;;;;-140.72;100.00;52752.06;6248301;23;19991;-73
2023/05/26 06:05:01;;;;;;;;;;;;;;;-140.72;100.00;52707.41;6247125;23;19990;-73
2023/05/26 06:07:27;;;;;;;;;;;;;;;-140.72;100.00;52703.34;6221224;23;19939;-73
2023/05/26 06:09:52;;;;;;;;;;;;;;;-140.72;100.00;52760.19;6248476;23;19916;-73
2023/05/26 06:12:17;;;;;;;;;;;;;;;-140.72;100.00;52743.94;6248861;23;19918;-73
2023/05/26 06:14:42;;;;;;;;;;;;;;;-140.72;100.00;52711.47;6248498;23;19920;-73
2023/05/26 06:17:08;;;;;;;;;;;;;;;-140.72;100.00;52703.34;6222714;23;19912;-79
2023/05/26 06:19:33;;;;;;;;;;;;;;;-140.72;100.00;52735.81;6250246;23;19918;-70
2023/05/26 06:21:58;;;;;;;;;;;;;;;-140.72;100.00;52672.91;6248294;23;19947;-69
2023/05/26 06:24:23;;;;;;;;;;;;;;;-140.72;100.00;52687.13;6248253;23;19974;-70
2023/05/26 06:26:48;;;;;;;;;;;;;;;-140.72;100.00;52695.25;6248503;23;19993;-70
2023/05/26 06:29:29;;;;;;;;;;;;;;;-140.72;100.00;52691.19;6248452;23;19926;-71
2023/05/26 06:31:54;;;;;;;;;;;;;;;-140.72;100.00;52683.06;6220860;23;19916;-70
2023/05/26 06:34:19;;;;;;;;;;;;;;;-140.72;100.00;52721.63;6247721;22;20374;-71
2023/05/26 06:36:45;;;;;;;;;;;;;;;-140.72;100.00;52672.91;6247618;23;20450;-72
2023/05/26 06:39:10;;;;;;;;;;;;;;;-140.72;100.00;52693.22;6247488;23;20296;-72
2023/05/26 06:41:35;;;;;;;;;;;;;;;-140.72;100.00;52666.84;6220324;23;19916;-72
2023/05/26 06:44:00;;;;;;;;;;;;;;;-140.72;100.00;52656.69;6247485;23;19964;-70
2023/05/26 06:46:26;;;;;;;;;;;;;;;-140.72;100.00;52674.94;6247593;23;19991;-71
2023/05/26 06:48:51;;;;;;;;;;;;;;;-140.72;100.00;52654.66;6247343;23;19911;-71
2023/05/26 06:51:16;;;;;;;;;;;;;;;-140.72;100.00;52687.13;6247375;23;19919;-71
2023/05/26 06:53:41;;;;;;;;;;;;;;;-140.72;100.00;52650.59;6247289;23;19943;-71
2023/05/26 06:56:07;;;;;;;;;;;;;;;-140.72;67.17;52666.84;6246939;23;20320;-70
2023/05/26 06:58:32;;;;;;;;;;;;;;;-140.72;58.00;52662.78;6247081;23;19951;-77
2023/05/26 07:01:01;;;;;;;;;;;;;;;-140.72;36.85;52628.28;6247771;23;19919;-75
2023/05/26 07:03:27;;;;;;;;;;;;;;;-140.72;14.95;52638.41;6246910;23;19963;-72
2023/05/26 07:05:52;;;;;;;;;;;;;;;-140.72;0.07;52642.47;6247136;23;19912;-71
2023/05/26 07:08:18;;;;;;;;;;;;;;;-140.72;0.00;52648.56;6248882;23;19943;-72
2023/05/26 07:10:43;;;;;;;;;;;;;;;-140.72;0.00;52646.53;6249040;23;19912;-72
2023/05/26 07:13:08;;;;;;;;;;;;;;;-140.72;0.00;52605.94;6248680;23;19965;-72
2023/05/26 07:15:33;;;;;;;;;;;;;;;-140.72;0.00;52618.13;6248227;23;19946;-71
2023/05/26 07:17:58;;;;;;;;;;;;;;;-140.72;0.00;52616.09;6246196;23;19919;-72
2023/05/26 07:20:24;;;;;;;;;;;;;;;-140.72;0.00;52607.97;6246452;23;19918;-72
2023/05/26 07:22:49;;;;;;;;;;;;;;;-140.72;0.00;52620.16;6247023;23;20022;-71
2023/05/26 07:25:14;;;;;;;;;;;;;;;-140.72;0.00;52605.94;6248502;23;19922;-70
2023/05/26 07:27:39;;;;;;;;;;;;;;;-140.72;0.00;52628.28;6246763;23;19922;-71
2023/05/26 07:30:05;;;;;;;;;;;;;;;-140.72;0.00;52632.34;6246684;23;19947;-74
2023/05/26 07:32:30;;;;;;;;;;;;;;;-140.72;0.00;52605.94;6246577;22;19924;-76
2023/05/26 07:34:55;;;;;;;;;;;;;;;-140.72;0.00;52654.66;6246918;23;19912;-77
2023/05/26 07:37:21;;;;;;;;;;;;;;;-140.72;0.00;52614.06;6219154;23;19918;-71
2023/05/26 07:39:46;;;;;;;;;;;;;;;-140.72;0.00;52630.31;6219970;23;19954;-72
2023/05/26 07:42:11;;;;;;;;;;;;;;;-140.72;0.00;52616.09;6246231;23;19961;-73
2023/05/26 07:44:36;;;;;;;;;;;;;;;-140.72;0.00;52620.16;6246740;23;19996;-72
2023/05/26 07:47:02;;;;;;;;;;;;;;;-140.72;0.00;52628.28;6246415;23;19918;-75
2023/05/26 07:49:27;;;;;;;;;;;;;;;-140.72;0.00;52644.50;6221195;23;20274;-72
2023/05/26 07:51:52;;;;;;;;;;;;;;;-140.72;0.00;52599.88;6223627;23;19959;-73
2023/05/26 07:54:17;;;;;;;;;;;;;;;-140.72;0.00;52638.41;6246771;23;19918;-73
2023/05/26 07:56:42;;;;;;;;;;;;;;;-140.72;0.00;52618.13;6244409;23;19916;-72
2023/05/26 07:59:08;;;;;;;;;;;;;;;-140.72;0.00;52603.94;6246305;23;19957;-73
2023/05/26 08:01:33;;;;;;;;;;;;;;;-140.72;0.00;52597.84;6244041;23;19920;-71
2023/05/26 08:03:58;;;;;;;;;;;;;;;-140.72;0.00;52610.00;6243231;23;19938;-72
2023/05/26 08:06:24;;;;;;;;;;;;;;;-140.72;0.00;52561.31;6218416;23;19911;-72
2023/05/26 08:08:49;;;;;;;;;;;;;;;-140.72;0.00;52557.25;6244359;23;19973;-72
2023/05/26 08:11:14;;;;;;;;;;;;;;;-140.72;0.00;52577.53;6244594;23;19918;-72
2023/05/26 08:13:39;;;;;;;;;;;;;;;-140.72;0.00;52545.06;6244467;23;19916;-72
2023/05/26 08:16:05;;;;;;;;;;;;;;;-140.72;0.00;52573.50;6245320;23;19912;-72
2023/05/26 08:18:30;;;;;;;;;;;;;;;-140.72;0.00;52583.63;6218215;23;19994;-72
2023/05/26 08:20:55;;;;;;;;;;;;;;;-140.72;0.00;52559.28;6244333;23;19917;-73
2023/05/26 08:23:21;;;;;;;;;;;;;;;-140.72;0.00;52539.00;6245444;23;20014;-72
2023/05/26 08:25:46;;;;;;;;;;;;;;;-140.72;0.00;52555.22;6245223;23;19911;-72
2023/05/26 08:28:11;;;;;;;;;;;;;;;-140.72;0.00;52549.13;6218419;23;20026;-73
2023/05/26 08:30:36;;;;;;;;;;;;;;;-140.72;0.00;52510.59;6244647;23;19998;-76
2023/05/26 08:33:02;;;;;;;;;;;;;;;-140.72;0.00;52518.69;6246656;22;20216;-75
2023/05/26 08:35:28;;;;;;;;;;;;;;;-140.72;0.00;52522.75;6243724;23;19919;-74
2023/05/26 08:37:53;;;;;;;;;;;;;;;-140.72;0.00;52492.31;6217426;23;19922;-75
2023/05/26 08:40:18;;;;;;;;;;;;;;;-140.72;0.00;52492.31;6244201;23;19911;-75
2023/05/26 08:42:46;;;;;;;;;;;;;;;-140.72;0.00;52482.16;6217274;23;19911;-76
2023/05/26 08:45:12;;;;;;;;;;;;;;;-140.72;0.00;52482.16;6218070;23;19912;-74
2023/05/26 08:47:40;;;;;;;;;;;;;;;-140.72;0.00;52437.53;6245055;23;19911;-74
2023/05/26 08:50:05;;;;;;;;;;;;;;;-140.72;0.00;52496.38;6217863;23;19915;-74
2023/05/26 08:52:31;;;;;;;;;;;;;;;-140.72;0.00;52447.69;6217772;23;19911;-74
2023/05/26 08:54:57;;;;;;;;;;;;;;;-140.72;0.00;52455.78;6244061;23;19912;-73
2023/05/26 08:57:22;;;;;;;;;;;;;;;-140.72;0.00;52415.22;6217481;23;19998;-73
2023/05/26 08:59:48;;;;;;;;;;;;;;;-140.72;0.00;52425.34;6244420;23;19912;-73
2023/05/26 09:02:13;;;;;;;;;;;;;;;-140.72;0.00;52419.28;6244615;23;19919;-74
2023/05/26 09:04:39;;;;;;;;;;;;;;;-140.72;0.00;52405.06;6244226;23;20311;-73
2023/05/26 09:07:05;;;;;;;;;;;;;;;-140.72;0.00;52415.22;6243893;23;19923;-74
2023/05/26 09:09:30;;;;;;;;;;;;;;;-140.72;0.00;52415.22;6244561;23;20331;-74
2023/05/26 09:11:56;;;;;;;;;;;;;;;-140.72;0.00;52358.41;6244352;23;19972;-74
2023/05/26 09:14:22;;;;;;;;;;;;;;;-140.72;0.00;52350.28;6217174;23;19915;-74
2023/05/26 09:16:47;;;;;;;;;;;;;;;-140.72;0.00;52362.44;6216742;23;20036;-74
2023/05/26 09:19:13;;;;;;;;;;;;;;;-140.72;0.00;52352.31;6216531;23;19915;-74
2023/05/26 09:21:44;;;;;;;;;;;;;;;-140.72;0.00;52346.22;6246191;23;19929;-74
2023/05/26 09:24:09;;;;;;;;;;;;;;;-140.72;0.00;52344.19;6218934;23;20238;-74
2023/05/26 09:26:35;;;;;;;;;;;;;;;-140.72;0.00;52297.53;6219119;23;19947;-74
2023/05/26 09:29:00;;;;;;;;;;;;;;;-140.72;0.00;52307.66;6246053;23;19912;-73
2023/05/26 09:31:37;;;;;;;;;;;;;;;-140.72;0.00;52273.19;6246409;23;19922;-74
2023/05/26 09:34:02;;;;;;;;;;;;;;;-140.72;0.00;52244.78;6219124;23;19974;-73
2023/05/26 09:36:27;;;;;;;;;;;;;;;-140.72;0.00;52273.19;6219141;23;19911;-72
2023/05/26 09:38:52;;;;;;;;;;;;;;;-140.72;0.00;52279.25;6221559;23;19947;-72
2023/05/26 09:41:19;;;;;;;;;;;;;;;-140.72;0.00;52242.75;6249589;23;19912;-72
2023/05/26 09:43:45;;;;;;;;;;;;;;;-140.72;0.00;52228.53;6248642;23;19911;-73
2023/05/26 09:46:20;;;;;;;;;;;;;;;-140.72;0.00;52228.53;6219838;23;19919;-72
2023/05/26 09:48:49;;;;;;;;;;;;;;;-140.72;0.00;52232.59;6246483;23;20279;-73
2023/05/26 09:51:17;;;;;;;;;;;;;;;-140.72;0.00;52212.31;6218398;23;20423;-72
2023/05/26 09:53:42;;;;;;;;;;;;;;;-140.72;0.00;52171.72;6245886;23;20347;-72
2023/05/26 09:56:07;;;;;;;;;;;;;;;-140.72;0.00;52179.84;6246280;23;19912;-73
2023/05/26 09:58:38;;;;;;;;;;;;;;;-140.72;0.00;52208.25;6219320;23;19915;-73
2023/05/26 10:01:05;;;;;;;;;;;;;;;-140.72;0.00;52202.16;6218773;23;19965;-72
2023/05/26 10:03:31;;;;;;;;;;;;;;;-140.72;0.00;52200.13;6220560;23;19918;-73
2023/05/26 10:05:57;;;;;;;;;;;;;;;-140.72;0.00;52147.38;6219093;23;19911;-73
2023/05/26 10:08:23;;;;;;;;;;;;;;;-140.72;0.00;52179.84;6218858;23;20286;-71
2023/05/26 10:10:49;;;;;;;;;;;;;;;-140.72;0.00;52143.31;6246915;23;20320;-72
2023/05/26 10:13:16;;;;;;;;;;;;;;;-140.72;0.00;52110.84;6221807;23;19993;-80
2023/05/26 10:15:42;;;;;;;;;;;;;;;-140.72;0.00;52106.78;6223149;23;19922;-79
2023/05/26 10:18:12;;;;;;;;;;;;;;;-140.72;0.00;52125.06;6252696;23;19912;-81
2023/05/26 10:20:38;;;;;;;;;;;;;;;-140.72;0.00;52066.22;6224841;23;19916;-80
2023/05/26 10:23:14;;;;;;;;;;;;;;;-140.72;0.00;52047.97;6225936;23;20235;-80
2023/05/26 10:25:39;;;;;;;;;;;;;;;-140.72;0.00;52066.22;6226654;23;20230;-77
2023/05/26 10:28:10;;;;;;;;;;;;;;;-140.72;0.00;52066.22;6219616;23;19919;-77
2023/05/26 10:30:36;;;;;;;;;;;;;;;-140.72;0.00;52035.78;6219307;23;19911;-77
2023/05/26 10:33:12;;;;;;;;;;;;;;;-140.72;0.00;52011.44;6219427;23;19911;-77
2023/05/26 10:35:37;;;;;;;;;;;;;;;-140.72;0.00;52015.50;6219190;23;19912;-77
2023/05/26 10:38:03;;;;;;;;;;;;;;;-140.72;0.00;52047.97;6248517;23;19954;-76
2023/05/26 10:40:46;;;;;;;;;;;;;;;-140.72;0.00;52045.94;6246720;23;19931;-77
2023/05/26 10:46:19;;;;;;;;;;;;;;;-140.72;0.00;52033.75;6249317;23;20021;-77
2023/05/26 10:48:57;;;;;;;;;;;;;;;-140.72;0.00;52013.47;6248575;23;19911;-75
2023/05/26 10:51:22;;;;;;;;;;;;;;;-140.72;0.00;51970.84;6221468;23;20247;-77
2023/05/26 10:53:47;;;;;;;;;;;;;;;-140.72;0.00;51970.84;6220452;23;19912;-72
2023/05/26 10:56:14;;;;;;;;;;;;;;;-140.72;0.00;51987.09;6246440;23;19911;-75
2023/05/26 10:58:41;;;;;;;;;;;;;;;-140.72;0.00;51944.47;6246168;23;19912;-73
2023/05/26 11:01:11;;;;;;;;;;;;;;;-140.72;0.00;51987.09;6246077;23;20350;-72
2023/05/26 11:03:41;;;;;;;;;;;;;;;-140.72;0.00;51954.63;6246153;23;19912;-72
2023/05/26 11:06:07;;;;;;;;;;;;;;;-140.72;0.00;52005.34;6219279;23;20045;-73
2023/05/26 11:08:36;;;;;;;;;;;;;;;-140.72;0.00;51993.19;6245996;23;20087;-73
2023/05/26 11:11:03;;;;;;;;;;;;;;;-140.72;0.00;51958.69;6245724;23;19912;-72
2023/05/26 11:13:38;;;;;;;;;;;;;;;-140.72;0.00;51940.41;6245866;23;19990;-76
2023/05/26 11:16:11;;;;;;;;;;;;;;;-140.72;0.00;51920.13;6247651;23;19920;-79
2023/05/26 11:18:36;;;;;;;;;;;;;;;-140.72;0.00;51993.19;6220078;23;19937;-75
2023/05/26 11:21:02;;;;;;;;;;;;;;;-140.72;0.00;51891.72;6246338;23;19912;-73
2023/05/26 11:23:36;;;;;;;;;;;;;;;-140.72;0.00;51952.59;6219458;23;19915;-73
2023/05/26 11:26:09;;;;;;;;;;;;;;;-140.72;0.00;51962.75;6236075;23;19916;-71
2023/05/26 11:28:34;;;;;;;;;;;;;;;-140.72;0.00;51940.41;6260594;23;19959;-72
2023/05/26 11:31:08;;;;;;;;;;;;;;;-140.72;0.00;52007.38;6249256;23;19918;-72
2023/05/26 11:33:33;;;;;;;;;;;;;;;-140.72;0.00;51928.25;6219012;23;20288;-72
2023/05/26 11:36:04;;;;;;;;;;;;;;;-140.72;0.00;51936.38;6246831;23;19958;-80
2023/05/26 11:38:30;;;;;;;;;;;;;;;-140.72;0.00;51905.94;6219894;23;19980;-75
2023/05/26 11:40:59;;;;;;;;;;;;;;;-140.72;0.00;51899.84;6219244;23;19912;-73
2023/05/26 11:43:24;;;;;;;;;;;;;;;-140.72;0.00;51920.13;6246099;23;19912;-73
2023/05/26 11:45:52;;;;;;;;;;;;;;;-140.72;0.00;51924.19;6246815;23;19919;-75
2023/05/26 11:48:18;;;;;;;;;;;;;;;-140.72;0.00;51903.91;6219566;23;20011;-72
2023/05/26 11:50:43;;;;;;;;;;;;;;;-140.72;0.00;51914.03;6246177;23;19919;-72
2023/05/26 11:53:08;;;;;;;;;;;;;;;-140.72;0.00;51956.66;6246488;23;19912;-75
2023/05/26 11:55:34;;;;;;;;;;;;;;;-140.72;0.00;51916.06;6247935;23;20382;-72
2023/05/26 11:57:59;;;;;;;;;;;;;;;-140.72;0.00;51895.78;6244214;23;19911;-71
2023/05/26 12:00:25;;;;;;;;;;;;;;;-140.72;0.00;51903.91;6244238;23;19922;-72
2023/05/26 12:02:50;;;;;;;;;;;;;;;-140.72;0.00;51865.34;6218571;23;20316;-71
2023/05/26 12:05:29;;;;;;;;;;;;;;;-140.72;0.00;51871.44;6244915;23;19912;-74
2023/05/26 12:08:04;;;;;;;;;;;;;;;-140.72;0.00;51859.28;6245559;23;19919;-74
2023/05/26 12:10:30;;;;;;;;;;;;;;;-140.72;0.00;51855.22;6245658;23;19912;-77
2023/05/26 12:12:55;;;;;;;;;;;;;;;-140.72;0.00;51867.38;6246242;23;19958;-76
2023/05/26 12:15:21;;;;;;;;;;;;;;;-140.72;0.00;51903.91;6218149;23;19915;-75
2023/05/26 12:17:53;;;;;;;;;;;;;;;-140.72;0.00;51847.09;6244470;23;19912;-72
2023/05/26 12:20:18;;;;;;;;;;;;;;;-140.72;0.00;51853.19;6244306;23;19918;-75
2023/05/26 12:22:43;;;;;;;;;;;;;;;-140.72;0.00;51865.34;6244433;23;20042;-74
2023/05/26 12:25:09;;;;;;;;;;;;;;;-140.72;0.00;51859.28;6244716;23;19934;-71
2023/05/26 12:27:38;;;;;;;;;;;;;;;-140.72;0.00;51806.53;6244640;23;19912;-70
2023/05/26 12:30:23;;;;;;;;;;;;;;;-140.72;0.00;51859.28;6243853;23;19916;-72
2023/05/26 12:32:48;;;;;;;;;;;;;;;-140.72;0.00;51834.91;6216864;23;19996;-72
2023/05/26 12:35:14;;;;;;;;;;;;;;;-140.72;0.00;51814.63;6244346;23;19916;-72
2023/05/26 12:37:39;;;;;;;;;;;;;;;-140.72;0.00;51847.09;6217056;23;20081;-73
2023/05/26 12:40:06;;;;;;;;;;;;;;;-140.72;0.00;51832.91;6217023;23;20342;-73
2023/05/26 12:42:31;;;;;;;;;;;;;;;-140.72;0.00;51806.53;6245008;23;19954;-71